createdAt,value
2022-12-03T00:03:48.251Z,16.00
2022-12-03T00:08:50.089Z,16.02
2022-12-03T00:13:51.844Z,18.52
2022-12-03T00:18:53.625Z,16.65
2022-12-03T00:23:55.358Z,16.00
2022-12-03T00:28:57.943Z,17.35
2022-12-03T00:33:59.715Z,15.63
2022-12-03T00:39:01.444Z,16.15
2022-12-03T00:44:03.306Z,16.58
2022-12-03T00:49:05.306Z,17.38
2022-12-03T00:54:07.040Z,18.05
2022-12-03T00:59:08.954Z,17.52
2022-12-03T01:04:10.915Z,17.25
2022-12-03T01:09:12.648Z,16.90
2022-12-03T01:14:16.945Z,17.55
2022-12-03T01:19:19.627Z,16.88
2022-12-03T01:24:21.934Z,17.60
2022-12-03T01:29:24.413Z,17.58
2022-12-03T01:34:26.154Z,18.27
2022-12-03T01:39:27.909Z,17.45
2022-12-03T01:44:33.921Z,18.05
2022-12-03T01:49:59.275Z,18.25
2022-12-03T01:55:02.795Z,18.17
2022-12-03T02:00:05.639Z,17.48
2022-12-03T02:05:17.372Z,16.90
2022-12-03T02:10:23.383Z,17.55
2022-12-03T02:15:25.837Z,16.50
2022-12-03T02:20:28.022Z,16.05
2022-12-03T02:25:32.189Z,15.55
2022-12-03T02:30:34.361Z,14.00
2022-12-03T02:35:37.360Z,14.63
2022-12-03T02:40:39.868Z,14.77
2022-12-03T02:45:54.731Z,14.38
2022-12-03T02:51:01.254Z,14.23
2022-12-03T02:56:04.789Z,14.57
2022-12-03T03:01:08.107Z,16.17
2022-12-03T03:06:10.217Z,13.88
2022-12-03T03:11:12.178Z,14.85
2022-12-03T03:16:13.960Z,15.00
2022-12-03T03:21:15.723Z,13.38
2022-12-03T03:26:17.828Z,14.20
2022-12-03T03:31:23.174Z,14.00
2022-12-03T03:36:26.220Z,13.93
2022-12-03T03:41:29.141Z,14.18
2022-12-03T03:46:33.361Z,13.55
2022-12-03T03:51:36.449Z,13.30
2022-12-03T03:56:38.474Z,13.40
2022-12-03T04:01:40.394Z,14.43
2022-12-03T04:06:42.324Z,13.45
2022-12-03T04:12:02.662Z,13.55
2022-12-03T04:17:04.439Z,15.57
2022-12-03T04:22:24.879Z,12.95
2022-12-03T04:27:45.272Z,13.05
2022-12-03T04:33:05.947Z,11.98
2022-12-03T04:38:07.698Z,12.93
2022-12-03T04:43:09.514Z,12.52
2022-12-03T04:48:11.293Z,12.98
2022-12-03T04:53:13.071Z,13.43
2022-12-03T04:58:14.791Z,11.57
2022-12-03T05:03:16.551Z,12.43
2022-12-03T05:08:18.343Z,12.13
2022-12-03T05:13:20.122Z,13.32
2022-12-03T05:18:21.880Z,12.77
2022-12-03T05:23:23.935Z,13.25
2022-12-03T05:28:25.726Z,13.52
2022-12-03T05:33:27.474Z,12.80
2022-12-03T05:38:29.254Z,12.48
2022-12-03T05:43:30.991Z,13.45
2022-12-03T05:48:32.818Z,14.32
2022-12-03T05:53:34.542Z,14.63
2022-12-03T05:58:36.310Z,14.32
2022-12-03T06:03:38.163Z,13.95
2022-12-03T06:08:40.041Z,14.75
2022-12-03T06:13:41.821Z,15.10
2022-12-03T06:18:43.579Z,14.50
2022-12-03T06:23:45.359Z,15.23
2022-12-03T06:28:49.139Z,15.18
2022-12-03T06:33:50.915Z,16.25
2022-12-03T06:38:52.663Z,15.82
2022-12-03T06:43:54.454Z,15.65
2022-12-03T06:48:56.157Z,16.13
2022-12-03T06:53:57.953Z,18.30
2022-12-03T06:58:59.725Z,16.77
2022-12-03T07:04:01.546Z,17.60
2022-12-03T07:09:03.970Z,17.33
2022-12-03T07:14:07.811Z,17.63
2022-12-03T07:19:10.114Z,16.10
2022-12-03T07:24:12.299Z,16.48
2022-12-03T07:29:14.143Z,15.68
2022-12-03T07:34:16.038Z,13.75
2022-12-03T07:39:17.748Z,12.95
2022-12-03T07:44:19.499Z,15.10
2022-12-03T07:49:21.278Z,24.40
2022-12-03T07:54:26.278Z,20.40
2022-12-03T07:59:28.494Z,21.45
2022-12-03T08:04:30.354Z,22.15
2022-12-03T08:09:32.181Z,20.70
2022-12-03T08:14:35.924Z,19.63
2022-12-03T08:19:37.702Z,17.58
2022-12-03T08:24:39.506Z,18.42
2022-12-03T08:29:41.287Z,19.00
2022-12-03T08:34:44.400Z,20.40
2022-12-03T08:39:48.460Z,24.45
2022-12-03T08:44:50.179Z,19.95
2022-12-03T08:49:56.034Z,21.75
2022-12-03T08:54:58.204Z,27.17
2022-12-03T09:00:21.850Z,23.02
2022-12-03T09:05:28.482Z,26.98
2022-12-03T09:10:45.364Z,30.15
2022-12-03T09:15:47.169Z,28.30
2022-12-03T09:20:48.960Z,28.42
2022-12-03T09:25:50.710Z,25.00
2022-12-03T09:30:52.451Z,26.88
2022-12-03T09:35:54.319Z,22.38
2022-12-03T09:40:56.138Z,28.90
2022-12-03T09:45:58.376Z,27.35
2022-12-03T09:51:00.190Z,28.48
2022-12-03T09:56:01.950Z,26.85
2022-12-03T10:01:13.642Z,24.88
2022-12-03T10:06:19.665Z,36.28
2022-12-03T10:11:24.448Z,29.70
2022-12-03T10:16:26.648Z,25.55
2022-12-03T10:21:37.027Z,25.70
2022-12-03T10:26:41.622Z,24.30
2022-12-03T10:31:43.390Z,27.25
2022-12-03T10:36:45.255Z,26.50
2022-12-03T10:41:47.778Z,23.80
2022-12-03T10:47:13.627Z,25.70
2022-12-03T10:52:25.641Z,31.08
2022-12-03T10:57:28.139Z,23.65
2022-12-03T11:02:29.944Z,25.55
2022-12-03T11:07:32.233Z,26.02
2022-12-03T11:12:35.638Z,31.75
2022-12-03T11:17:47.330Z,25.40
2022-12-03T11:22:50.702Z,27.08
2022-12-03T11:28:11.527Z,28.00
2022-12-03T11:33:31.897Z,26.70
2022-12-03T11:38:41.562Z,28.17
2022-12-03T11:43:52.572Z,28.33
2022-12-03T11:48:57.680Z,26.52
2022-12-03T11:54:00.602Z,28.48
2022-12-03T11:59:04.711Z,29.08
2022-12-03T12:04:08.586Z,27.48
2022-12-03T12:09:10.767Z,27.60
2022-12-03T12:14:13.523Z,23.17
2022-12-03T12:19:34.174Z,20.35
2022-12-03T12:24:47.063Z,20.15
2022-12-03T12:30:04.672Z,20.35
2022-12-03T12:35:22.664Z,21.77
2022-12-03T12:40:29.484Z,22.10
2022-12-03T12:45:34.903Z,28.98
2022-12-03T12:50:41.151Z,25.42
2022-12-03T12:55:43.022Z,26.48
2022-12-03T13:00:49.907Z,26.08
2022-12-03T13:05:53.213Z,25.10
2022-12-03T13:10:59.836Z,23.25
2022-12-03T13:16:16.832Z,23.52
2022-12-03T13:21:18.530Z,20.77
2022-12-03T13:26:39.432Z,22.35
2022-12-03T13:31:48.159Z,21.27
2022-12-03T13:36:57.088Z,20.85
2022-12-03T13:42:33.002Z,20.05
2022-12-03T13:47:36.752Z,18.10
2022-12-03T13:52:38.519Z,19.88
2022-12-03T13:57:40.214Z,19.05
2022-12-03T14:02:42.233Z,16.92
2022-12-03T14:07:44.090Z,20.40
2022-12-03T14:12:45.927Z,19.88
2022-12-03T14:17:48.334Z,17.17
2022-12-03T14:22:52.899Z,17.92
2022-12-03T14:32:59.827Z,15.57
2022-12-03T14:38:01.634Z,17.20
2022-12-03T14:43:03.512Z,16.63
2022-12-03T14:48:05.461Z,17.45
2022-12-03T14:53:07.263Z,18.48
2022-12-03T14:58:09.016Z,17.48
2022-12-03T15:03:10.964Z,19.95
2022-12-03T15:08:12.853Z,21.35
2022-12-03T15:13:14.673Z,22.45
2022-12-03T15:18:16.401Z,22.92
2022-12-03T15:23:18.171Z,22.75
2022-12-03T15:28:19.934Z,30.90
2022-12-03T15:33:21.865Z,32.53
2022-12-03T15:38:23.800Z,33.40
2022-12-03T15:43:25.517Z,29.60
2022-12-03T15:48:27.283Z,31.15
2022-12-03T15:53:28.998Z,33.33
2022-12-03T15:58:30.882Z,34.25
2022-12-03T16:03:32.743Z,30.25
2022-12-03T16:08:34.498Z,35.80
2022-12-03T16:13:36.300Z,31.58
2022-12-03T16:18:38.086Z,28.10
2022-12-03T16:23:40.126Z,21.90
2022-12-03T16:28:41.883Z,26.63
2022-12-03T16:33:43.813Z,21.27
2022-12-03T16:38:45.597Z,21.25
2022-12-03T16:43:48.559Z,21.83
2022-12-03T16:48:50.749Z,21.85
2022-12-03T16:53:53.030Z,23.98
2022-12-03T16:58:54.862Z,26.45
2022-12-03T17:03:56.651Z,24.95
2022-12-03T17:08:58.398Z,26.70
2022-12-03T17:14:00.098Z,22.98
2022-12-03T17:19:01.857Z,23.15
2022-12-03T17:24:03.765Z,23.48
2022-12-03T17:29:05.490Z,24.27
2022-12-03T17:34:07.186Z,32.95
2022-12-03T17:39:08.932Z,32.45
2022-12-03T17:44:16.316Z,33.38
2022-12-03T17:49:21.046Z,32.03
2022-12-03T17:54:22.909Z,33.58
2022-12-03T17:59:24.788Z,33.67
2022-12-03T18:04:26.560Z,31.40
2022-12-03T18:09:28.334Z,34.22
2022-12-03T18:14:30.081Z,36.55
2022-12-03T18:19:31.847Z,34.13
2022-12-03T18:24:33.723Z,33.05
2022-12-03T18:29:35.486Z,34.35
2022-12-03T18:34:37.304Z,35.08
2022-12-03T18:39:42.836Z,34.40
2022-12-03T18:44:49.665Z,38.03
2022-12-03T18:49:52.100Z,36.67
2022-12-03T18:54:55.254Z,33.88
2022-12-03T18:59:57.302Z,33.08
2022-12-03T19:04:59.260Z,37.78
2022-12-03T19:10:00.989Z,33.88
2022-12-03T19:15:04.099Z,33.88
2022-12-03T19:20:10.850Z,35.30
2022-12-03T19:25:12.597Z,33.80
2022-12-03T19:30:14.513Z,32.20
2022-12-03T19:35:16.377Z,32.55
2022-12-03T19:40:18.202Z,31.58
2022-12-03T19:45:19.951Z,32.25
2022-12-03T19:50:23.488Z,32.03
2022-12-03T19:55:25.654Z,35.55
2022-12-03T20:00:27.498Z,32.33
2022-12-03T20:05:33.330Z,33.03
2022-12-03T20:10:35.637Z,31.20
2022-12-03T20:15:37.532Z,29.60
2022-12-03T20:20:39.242Z,28.13
2022-12-03T20:25:41.130Z,27.65
2022-12-03T20:30:44.572Z,24.38
2022-12-03T20:35:52.641Z,25.30
2022-12-03T20:46:02.413Z,24.13
2022-12-03T20:51:09.662Z,24.50
2022-12-03T20:56:18.301Z,22.95
2022-12-03T21:01:29.100Z,23.05
2022-12-03T21:06:31.366Z,21.52
2022-12-03T21:11:35.822Z,21.75
2022-12-03T21:17:06.767Z,22.90
2022-12-03T21:22:01.868Z,22.42
2022-12-03T21:27:03.700Z,23.30
2022-12-03T21:32:05.446Z,22.17
2022-12-03T21:37:07.179Z,21.45
2022-12-03T21:42:22.078Z,22.88
2022-12-03T21:47:36.530Z,21.52
2022-12-03T21:52:39.194Z,22.23
2022-12-03T21:57:40.942Z,22.67
2022-12-03T22:02:42.918Z,21.98
2022-12-03T22:07:44.788Z,23.50
2022-12-03T22:12:46.526Z,21.95
2022-12-03T22:17:48.486Z,22.58
2022-12-03T22:22:50.280Z,21.38
2022-12-03T22:27:52.039Z,20.77
2022-12-03T22:32:53.857Z,19.65
2022-12-03T22:37:55.682Z,19.85
2022-12-03T22:42:57.444Z,20.15
2022-12-03T22:47:59.156Z,20.08
2022-12-03T22:53:00.887Z,20.20
2022-12-03T22:58:02.760Z,19.98
2022-12-03T23:03:05.736Z,20.75
2022-12-03T23:08:10.714Z,18.98
2022-12-03T23:13:13.126Z,30.38
2022-12-03T23:18:15.054Z,49.83
2022-12-03T23:23:17.413Z,39.80
2022-12-03T23:28:19.138Z,37.42
2022-12-03T23:33:21.322Z,43.40
2022-12-03T23:38:23.324Z,41.30
2022-12-03T23:43:25.125Z,41.65
2022-12-03T23:48:28.902Z,33.15
2022-12-03T23:53:30.743Z,25.17
2022-12-03T23:58:32.653Z,20.40
